Terminal Aerodrome Forecast
Issued by NWS

Home | Current Version | Previous Version | Text Only | Print | Product List | Glossary On
Versions: 1 2 3 4 5 6 7 8 9 10 11 12 13 14 15
289
FTUS41 KCAR 221730
TAFHUL
TAF
KHUL 221730Z 2218/2318 20008KT P6SM BKN050
     FM230300 19010KT 3SM -SHRA OVC015
      TEMPO 2306/2309 3SM -TSRA OVC015CB
     FM230900 19008KT 2SM BR OVC008
     FM231400 23010G18KT P6SM BKN015
     FM231600 23010G20KT P6SM BKN050=

USA.gov is the U.S. government's official web portal to all federal, state and local government web resources and services.